sensor_id;sensor_type;location;lat;lon;timestamp;pressure;altitude;pressure_sealevel;temperature;humidity
13767;BME280;47980;48.794;9.176;2022-08-07T00:02:09;98805.16;;;18.43;44.74
13767;BME280;47980;48.794;9.176;2022-08-07T00:04:41;98809.16;;;18.29;45.97
13767;BME280;47980;48.794;9.176;2022-08-07T00:07:13;98804.59;;;18.30;46.64
13767;BME280;47980;48.794;9.176;2022-08-07T00:09:47;98802.47;;;18.20;47.45
13767;BME280;47980;48.794;9.176;2022-08-07T00:12:18;98803.59;;;18.19;47.51
13767;BME280;47980;48.794;9.176;2022-08-07T00:14:50;98808.44;;;18.10;47.63
13767;BME280;47980;48.794;9.176;2022-08-07T00:17:22;98796.81;;;18.02;46.32
13767;BME280;47980;48.794;9.176;2022-08-07T00:19:54;98802.69;;;18.11;45.75
13767;BME280;47980;48.794;9.176;2022-08-07T00:22:26;98805.81;;;18.13;45.17
13767;BME280;47980;48.794;9.176;2022-08-07T00:24:59;98800.75;;;18.31;45.24
13767;BME280;47980;48.794;9.176;2022-08-07T00:27:31;98789.28;;;18.34;45.13
13767;BME280;47980;48.794;9.176;2022-08-07T00:30:03;98792.94;;;18.45;44.88
13767;BME280;47980;48.794;9.176;2022-08-07T00:32:37;98792.50;;;18.43;45.28
13767;BME280;47980;48.794;9.176;2022-08-07T00:35:09;98795.19;;;18.43;46.14
13767;BME280;47980;48.794;9.176;2022-08-07T00:37:41;98797.44;;;18.18;47.28
13767;BME280;47980;48.794;9.176;2022-08-07T00:40:15;98798.09;;;18.12;48.20
13767;BME280;47980;48.794;9.176;2022-08-07T00:42:47;98801.28;;;17.94;48.18
13767;BME280;47980;48.794;9.176;2022-08-07T00:45:19;98797.97;;;18.04;47.62
13767;BME280;47980;48.794;9.176;2022-08-07T00:47:51;98805.25;;;18.04;47.66
13767;BME280;47980;48.794;9.176;2022-08-07T00:50:23;98800.56;;;17.97;48.86
13767;BME280;47980;48.794;9.176;2022-08-07T00:52:55;98808.63;;;17.97;49.64
13767;BME280;47980;48.794;9.176;2022-08-07T00:55:29;98802.53;;;17.81;49.08
13767;BME280;47980;48.794;9.176;2022-08-07T00:58:01;98803.31;;;17.62;49.83
13767;BME280;47980;48.794;9.176;2022-08-07T01:00:33;98809.75;;;17.77;49.03
13767;BME280;47980;48.794;9.176;2022-08-07T01:03:05;98808.22;;;17.76;49.07
13767;BME280;47980;48.794;9.176;2022-08-07T01:05:38;98799.63;;;17.90;47.36
13767;BME280;47980;48.794;9.176;2022-08-07T01:08:10;98799.06;;;18.00;47.78
13767;BME280;47980;48.794;9.176;2022-08-07T01:10:44;98794.53;;;18.04;47.42
13767;BME280;47980;48.794;9.176;2022-08-07T01:13:15;98801.19;;;17.91;47.73
13767;BME280;47980;48.794;9.176;2022-08-07T01:15:48;98793.41;;;17.86;47.52
13767;BME280;47980;48.794;9.176;2022-08-07T01:18:21;98787.16;;;17.78;47.87
13767;BME280;47980;48.794;9.176;2022-08-07T01:21:03;98794.50;;;17.81;48.13
13767;BME280;47980;48.794;9.176;2022-08-07T01:23:36;98784.84;;;17.76;48.37
13767;BME280;47980;48.794;9.176;2022-08-07T01:26:09;98791.38;;;17.79;47.47
13767;BME280;47980;48.794;9.176;2022-08-07T01:28:43;98786.06;;;17.63;48.56
13767;BME280;47980;48.794;9.176;2022-08-07T01:31:16;98783.06;;;17.65;48.86
13767;BME280;47980;48.794;9.176;2022-08-07T01:33:48;98785.44;;;17.70;48.05
13767;BME280;47980;48.794;9.176;2022-08-07T01:36:22;98786.66;;;17.72;48.57
13767;BME280;47980;48.794;9.176;2022-08-07T01:38:54;98793.28;;;17.78;48.79
13767;BME280;47980;48.794;9.176;2022-08-07T01:41:26;98784.31;;;17.71;48.89
13767;BME280;47980;48.794;9.176;2022-08-07T01:43:58;98794.13;;;17.63;49.10
13767;BME280;47980;48.794;9.176;2022-08-07T01:46:30;98789.13;;;17.62;49.34
13767;BME280;47980;48.794;9.176;2022-08-07T01:49:10;98789.13;;;17.62;49.29
13767;BME280;47980;48.794;9.176;2022-08-07T01:51:45;98786.00;;;17.60;48.94
13767;BME280;47980;48.794;9.176;2022-08-07T01:54:19;98778.25;;;17.54;49.68
13767;BME280;47980;48.794;9.176;2022-08-07T01:56:54;98783.31;;;17.60;49.25
13767;BME280;47980;48.794;9.176;2022-08-07T01:59:30;98784.06;;;17.76;49.45
13767;BME280;47980;48.794;9.176;2022-08-07T02:02:07;98785.94;;;17.75;49.01
13767;BME280;47980;48.794;9.176;2022-08-07T02:04:43;98777.31;;;17.66;49.35
13767;BME280;47980;48.794;9.176;2022-08-07T02:07:21;98781.34;;;17.56;50.08
13767;BME280;47980;48.794;9.176;2022-08-07T02:09:54;98776.19;;;17.48;49.68
13767;BME280;47980;48.794;9.176;2022-08-07T02:12:30;98771.59;;;17.48;50.43
13767;BME280;47980;48.794;9.176;2022-08-07T02:15:04;98767.00;;;17.68;49.85
13767;BME280;47980;48.794;9.176;2022-08-07T02:17:37;98765.56;;;17.74;49.97
13767;BME280;47980;48.794;9.176;2022-08-07T02:20:10;98768.84;;;17.45;50.40
13767;BME280;47980;48.794;9.176;2022-08-07T02:22:45;98770.75;;;17.25;50.26
13767;BME280;47980;48.794;9.176;2022-08-07T02:25:19;98764.38;;;17.14;51.18
13767;BME280;47980;48.794;9.176;2022-08-07T02:27:51;98763.34;;;17.18;51.36
13767;BME280;47980;48.794;9.176;2022-08-07T02:30:24;98758.47;;;17.04;50.69
13767;BME280;47980;48.794;9.176;2022-08-07T02:32:58;98763.78;;;16.85;51.56
13767;BME280;47980;48.794;9.176;2022-08-07T02:35:31;98761.88;;;16.86;51.83
13767;BME280;47980;48.794;9.176;2022-08-07T02:38:06;98759.81;;;16.79;51.43
13767;BME280;47980;48.794;9.176;2022-08-07T02:40:39;98756.09;;;16.68;52.25
13767;BME280;47980;48.794;9.176;2022-08-07T02:43:13;98755.94;;;16.76;52.40
13767;BME280;47980;48.794;9.176;2022-08-07T02:45:46;98756.09;;;16.68;52.39
13767;BME280;47980;48.794;9.176;2022-08-07T02:48:19;98758.16;;;16.58;53.14
13767;BME280;47980;48.794;9.176;2022-08-07T02:50:53;98764.06;;;16.64;52.61
13767;BME280;47980;48.794;9.176;2022-08-07T02:53:30;98761.38;;;16.48;53.97
13767;BME280;47980;48.794;9.176;2022-08-07T02:56:03;98752.19;;;16.65;53.19
13767;BME280;47980;48.794;9.176;2022-08-07T02:58:35;98756.97;;;16.56;52.74
13767;BME280;47980;48.794;9.176;2022-08-07T03:01:08;98760.25;;;16.49;53.78
13767;BME280;47980;48.794;9.176;2022-08-07T03:03:42;98758.38;;;16.50;53.45
13767;BME280;47980;48.794;9.176;2022-08-07T03:06:14;98753.69;;;16.47;53.89
13767;BME280;47980;48.794;9.176;2022-08-07T03:08:48;98752.91;;;16.62;53.40
13767;BME280;47980;48.794;9.176;2022-08-07T03:11:21;98755.06;;;16.56;54.23
13767;BME280;47980;48.794;9.176;2022-08-07T03:13:53;98761.53;;;16.55;54.29
13767;BME280;47980;48.794;9.176;2022-08-07T03:16:25;98764.38;;;16.63;53.58
13767;BME280;47980;48.794;9.176;2022-08-07T03:18:58;98756.63;;;16.57;54.33
13767;BME280;47980;48.794;9.176;2022-08-07T03:21:30;98752.22;;;16.49;53.96
13767;BME280;47980;48.794;9.176;2022-08-07T03:24:04;98756.25;;;16.59;54.19
13767;BME280;47980;48.794;9.176;2022-08-07T03:26:37;98763.00;;;16.69;55.07
13767;BME280;47980;48.794;9.176;2022-08-07T03:29:10;98759.31;;;16.57;54.92
13767;BME280;47980;48.794;9.176;2022-08-07T03:31:44;98770.53;;;16.47;54.97
13767;BME280;47980;48.794;9.176;2022-08-07T03:34:17;98770.78;;;16.74;53.85
13767;BME280;47980;48.794;9.176;2022-08-07T03:36:51;98762.06;;;16.77;53.96
13767;BME280;47980;48.794;9.176;2022-08-07T03:39:25;98765.69;;;16.69;55.17
13767;BME280;47980;48.794;9.176;2022-08-07T03:41:58;98763.03;;;17.04;53.90
13767;BME280;47980;48.794;9.176;2022-08-07T03:44:30;98754.38;;;17.30;53.36
13767;BME280;47980;48.794;9.176;2022-08-07T03:47:04;98757.59;;;17.00;55.58
13767;BME280;47980;48.794;9.176;2022-08-07T03:49:36;98759.97;;;17.21;54.98
13767;BME280;47980;48.794;9.176;2022-08-07T03:52:08;98756.06;;;17.19;54.83
13767;BME280;47980;48.794;9.176;2022-08-07T03:54:43;98749.25;;;17.21;54.81
13767;BME280;47980;48.794;9.176;2022-08-07T03:57:15;98759.16;;;17.21;54.87
13767;BME280;47980;48.794;9.176;2022-08-07T03:59:47;98744.97;;;17.20;55.01
13767;BME280;47980;48.794;9.176;2022-08-07T04:02:19;98750.63;;;17.35;54.89
13767;BME280;47980;48.794;9.176;2022-08-07T04:04:52;98748.66;;;17.12;55.48
13767;BME280;47980;48.794;9.176;2022-08-07T04:07:24;98753.94;;;17.08;55.51
13767;BME280;47980;48.794;9.176;2022-08-07T04:09:57;98752.72;;;17.06;56.43
13767;BME280;47980;48.794;9.176;2022-08-07T04:12:30;98761.06;;;17.01;56.27
13767;BME280;47980;48.794;9.176;2022-08-07T04:15:03;98759.31;;;17.08;56.01
13767;BME280;47980;48.794;9.176;2022-08-07T04:17:35;98760.16;;;17.13;56.05
13767;BME280;47980;48.794;9.176;2022-08-07T04:20:08;98767.34;;;17.08;56.55
13767;BME280;47980;48.794;9.176;2022-08-07T04:22:41;98770.56;;;16.98;56.79
13767;BME280;47980;48.794;9.176;2022-08-07T04:25:14;98770.72;;;17.05;56.62
13767;BME280;47980;48.794;9.176;2022-08-07T04:27:48;98774.75;;;16.96;58.59
13767;BME280;47980;48.794;9.176;2022-08-07T04:30:20;98773.47;;;17.09;57.09
13767;BME280;47980;48.794;9.176;2022-08-07T04:32:52;98786.81;;;17.05;59.01
13767;BME280;47980;48.794;9.176;2022-08-07T04:35:24;98777.00;;;17.13;57.43
13767;BME280;47980;48.794;9.176;2022-08-07T04:37:56;98783.16;;;17.14;57.62
13767;BME280;47980;48.794;9.176;2022-08-07T04:40:29;98788.53;;;17.72;56.02
13767;BME280;47980;48.794;9.176;2022-08-07T04:43:01;98786.38;;;17.77;55.26
13767;BME280;47980;48.794;9.176;2022-08-07T04:45:37;98790.25;;;17.80;55.80
13767;BME280;47980;48.794;9.176;2022-08-07T04:48:16;98793.34;;;17.82;55.92
13767;BME280;47980;48.794;9.176;2022-08-07T04:50:57;98795.53;;;17.96;55.83
13767;BME280;47980;48.794;9.176;2022-08-07T04:53:38;98793.59;;;18.16;55.30
13767;BME280;47980;48.794;9.176;2022-08-07T04:56:20;98791.56;;;17.90;56.86
13767;BME280;47980;48.794;9.176;2022-08-07T04:58:59;98791.22;;;17.91;56.61
13767;BME280;47980;48.794;9.176;2022-08-07T05:01:39;98803.25;;;18.20;56.55
13767;BME280;47980;48.794;9.176;2022-08-07T05:04:15;98798.78;;;17.86;57.03
13767;BME280;47980;48.794;9.176;2022-08-07T05:06:55;98794.69;;;17.92;56.82
13767;BME280;47980;48.794;9.176;2022-08-07T05:09:31;98795.59;;;18.22;57.11
13767;BME280;47980;48.794;9.176;2022-08-07T05:12:10;98797.28;;;18.31;56.68
13767;BME280;47980;48.794;9.176;2022-08-07T05:14:46;98797.44;;;18.18;57.70
13767;BME280;47980;48.794;9.176;2022-08-07T05:17:20;98802.41;;;18.39;57.08
13767;BME280;47980;48.794;9.176;2022-08-07T05:19:54;98799.69;;;18.13;58.53
13767;BME280;47980;48.794;9.176;2022-08-07T05:22:27;98804.03;;;18.44;57.02
13767;BME280;47980;48.794;9.176;2022-08-07T05:24:59;98803.97;;;18.40;58.63
13767;BME280;47980;48.794;9.176;2022-08-07T05:27:34;98807.38;;;18.60;57.07
13767;BME280;47980;48.794;9.176;2022-08-07T05:30:07;98815.59;;;18.48;57.69
13767;BME280;47980;48.794;9.176;2022-08-07T05:32:39;98812.84;;;18.67;57.77
13767;BME280;47980;48.794;9.176;2022-08-07T05:35:12;98821.03;;;18.51;58.22
13767;BME280;47980;48.794;9.176;2022-08-07T05:37:45;98822.31;;;19.07;57.98
13767;BME280;47980;48.794;9.176;2022-08-07T05:40:17;98813.25;;;18.69;58.24
13767;BME280;47980;48.794;9.176;2022-08-07T05:42:51;98815.50;;;18.64;57.91
13767;BME280;47980;48.794;9.176;2022-08-07T05:45:23;98814.09;;;18.73;58.60
13767;BME280;47980;48.794;9.176;2022-08-07T05:47:56;98822.56;;;18.98;58.14
13767;BME280;47980;48.794;9.176;2022-08-07T05:50:30;98824.34;;;18.91;58.83
13767;BME280;47980;48.794;9.176;2022-08-07T05:53:03;98817.75;;;18.85;59.04
13767;BME280;47980;48.794;9.176;2022-08-07T05:55:36;98828.59;;;19.18;57.28
13767;BME280;47980;48.794;9.176;2022-08-07T05:58:10;98826.22;;;18.87;59.20
13767;BME280;47980;48.794;9.176;2022-08-07T06:00:45;98833.69;;;18.97;59.36
13767;BME280;47980;48.794;9.176;2022-08-07T06:03:19;98832.88;;;19.23;58.85
13767;BME280;47980;48.794;9.176;2022-08-07T06:05:53;98834.09;;;19.26;57.96
13767;BME280;47980;48.794;9.176;2022-08-07T06:08:25;98826.91;;;19.63;57.34
13767;BME280;47980;48.794;9.176;2022-08-07T06:10:58;98827.25;;;19.62;58.02
13767;BME280;47980;48.794;9.176;2022-08-07T06:13:34;98824.97;;;19.98;56.66
13767;BME280;47980;48.794;9.176;2022-08-07T06:16:07;98827.19;;;19.88;57.95
13767;BME280;47980;48.794;9.176;2022-08-07T06:18:39;98833.59;;;20.14;56.40
13767;BME280;47980;48.794;9.176;2022-08-07T06:21:13;98823.06;;;19.98;55.89
13767;BME280;47980;48.794;9.176;2022-08-07T06:23:46;98828.44;;;19.98;57.03
13767;BME280;47980;48.794;9.176;2022-08-07T06:26:18;98827.94;;;20.23;56.19
13767;BME280;47980;48.794;9.176;2022-08-07T06:29:05;98822.50;;;20.19;56.96
13767;BME280;47980;48.794;9.176;2022-08-07T06:31:37;98825.03;;;20.46;56.58
13767;BME280;47980;48.794;9.176;2022-08-07T06:34:09;98826.47;;;20.77;56.24
13767;BME280;47980;48.794;9.176;2022-08-07T06:36:41;98814.84;;;20.69;56.42
13767;BME280;47980;48.794;9.176;2022-08-07T06:39:13;98814.56;;;20.37;56.68
13767;BME280;47980;48.794;9.176;2022-08-07T06:41:47;98810.38;;;20.43;57.74
13767;BME280;47980;48.794;9.176;2022-08-07T06:44:21;98807.84;;;20.61;57.72
13767;BME280;47980;48.794;9.176;2022-08-07T06:46:58;98810.78;;;20.93;57.14
13767;BME280;47980;48.794;9.176;2022-08-07T06:49:32;98810.53;;;21.16;55.85
13767;BME280;47980;48.794;9.176;2022-08-07T06:52:08;98815.97;;;21.27;57.04
13767;BME280;47980;48.794;9.176;2022-08-07T06:54:40;98813.69;;;20.66;57.69
13767;BME280;47980;48.794;9.176;2022-08-07T06:57:13;98811.28;;;20.58;59.35
13767;BME280;47980;48.794;9.176;2022-08-07T06:59:46;98816.66;;;21.09;57.21
13767;BME280;47980;48.794;9.176;2022-08-07T07:02:20;98814.78;;;21.13;57.80
13767;BME280;47980;48.794;9.176;2022-08-07T07:04:52;98810.94;;;21.22;57.90
13767;BME280;47980;48.794;9.176;2022-08-07T07:07:24;98809.75;;;21.15;59.32
13767;BME280;47980;48.794;9.176;2022-08-07T07:09:56;98806.09;;;21.52;57.88
13767;BME280;47980;48.794;9.176;2022-08-07T07:12:37;98810.81;;;21.73;56.66
13767;BME280;47980;48.794;9.176;2022-08-07T07:15:15;98811.63;;;21.88;56.28
13767;BME280;47980;48.794;9.176;2022-08-07T07:17:53;98809.72;;;22.06;55.79
13767;BME280;47980;48.794;9.176;2022-08-07T07:20:32;98811.16;;;21.65;56.79
13767;BME280;47980;48.794;9.176;2022-08-07T07:23:05;98808.19;;;22.02;56.46
13767;BME280;47980;48.794;9.176;2022-08-07T07:25:38;98819.06;;;22.52;54.87
13767;BME280;47980;48.794;9.176;2022-08-07T07:28:15;98815.59;;;22.26;54.01
13767;BME280;47980;48.794;9.176;2022-08-07T07:30:54;98808.56;;;22.04;55.22
13767;BME280;47980;48.794;9.176;2022-08-07T07:33:30;98810.19;;;22.41;54.02
13767;BME280;47980;48.794;9.176;2022-08-07T07:36:04;98806.31;;;22.70;53.02
13767;BME280;47980;48.794;9.176;2022-08-07T07:38:38;98797.03;;;22.68;53.16
13767;BME280;47980;48.794;9.176;2022-08-07T07:41:14;98802.41;;;22.86;52.10
13767;BME280;47980;48.794;9.176;2022-08-07T07:43:49;98798.84;;;23.32;49.77
13767;BME280;47980;48.794;9.176;2022-08-07T07:46:23;98793.81;;;23.26;50.35
13767;BME280;47980;48.794;9.176;2022-08-07T07:48:58;98786.50;;;23.20;49.80
13767;BME280;47980;48.794;9.176;2022-08-07T07:51:31;98787.31;;;23.13;48.84
13767;BME280;47980;48.794;9.176;2022-08-07T07:54:05;98786.13;;;23.18;49.79
13767;BME280;47980;48.794;9.176;2022-08-07T07:56:39;98783.66;;;23.55;48.82
13767;BME280;47980;48.794;9.176;2022-08-07T07:59:18;98788.78;;;23.32;48.79
13767;BME280;47980;48.794;9.176;2022-08-07T08:01:53;98783.00;;;23.23;48.83
13767;BME280;47980;48.794;9.176;2022-08-07T08:04:28;98784.50;;;23.35;48.18
13767;BME280;47980;48.794;9.176;2022-08-07T08:07:01;98778.88;;;23.85;48.02
13767;BME280;47980;48.794;9.176;2022-08-07T08:09:34;98773.56;;;23.60;47.82
13767;BME280;47980;48.794;9.176;2022-08-07T08:12:07;98767.38;;;23.59;47.74
13767;BME280;47980;48.794;9.176;2022-08-07T08:14:39;98779.69;;;23.78;47.23
13767;BME280;47980;48.794;9.176;2022-08-07T08:17:13;98771.06;;;23.97;45.67
13767;BME280;47980;48.794;9.176;2022-08-07T08:19:47;98771.53;;;24.37;44.54
13767;BME280;47980;48.794;9.176;2022-08-07T08:22:21;98771.09;;;24.46;44.30
13767;BME280;47980;48.794;9.176;2022-08-07T08:25:12;98778.50;;;24.38;43.54
13767;BME280;47980;48.794;9.176;2022-08-07T08:28:02;98780.19;;;24.70;42.85
13767;BME280;47980;48.794;9.176;2022-08-07T08:30:36;98771.66;;;24.23;42.55
13767;BME280;47980;48.794;9.176;2022-08-07T08:33:12;98771.16;;;24.35;41.83
13767;BME280;47980;48.794;9.176;2022-08-07T08:35:48;98773.78;;;24.49;42.12
13767;BME280;47980;48.794;9.176;2022-08-07T08:38:24;98768.88;;;24.30;43.32
13767;BME280;47980;48.794;9.176;2022-08-07T08:41:00;98769.19;;;24.43;41.58
13767;BME280;47980;48.794;9.176;2022-08-07T08:43:41;98763.28;;;24.55;41.73
13767;BME280;47980;48.794;9.176;2022-08-07T08:46:21;98767.50;;;24.60;41.13
13767;BME280;47980;48.794;9.176;2022-08-07T08:49:03;98769.47;;;24.93;40.26
13767;BME280;47980;48.794;9.176;2022-08-07T08:51:40;98763.00;;;24.84;40.73
13767;BME280;47980;48.794;9.176;2022-08-07T08:54:22;98764.00;;;24.97;39.57
13767;BME280;47980;48.794;9.176;2022-08-07T08:56:58;98765.72;;;24.84;38.63
13767;BME280;47980;48.794;9.176;2022-08-07T08:59:36;98759.09;;;24.85;38.09
13767;BME280;47980;48.794;9.176;2022-08-07T09:02:17;98766.44;;;24.88;38.90
13767;BME280;47980;48.794;9.176;2022-08-07T09:05:02;98763.44;;;24.79;38.45
13767;BME280;47980;48.794;9.176;2022-08-07T09:07:43;98762.25;;;25.17;38.26
13767;BME280;47980;48.794;9.176;2022-08-07T09:10:22;98757.44;;;25.59;37.56
13767;BME280;47980;48.794;9.176;2022-08-07T09:13:02;98757.88;;;25.58;36.30
13767;BME280;47980;48.794;9.176;2022-08-07T09:15:38;98749.94;;;25.40;37.68
13767;BME280;47980;48.794;9.176;2022-08-07T09:18:21;98746.53;;;25.63;37.76
13767;BME280;47980;48.794;9.176;2022-08-07T09:21:04;98744.00;;;25.79;37.97
13767;BME280;47980;48.794;9.176;2022-08-07T09:23:51;98764.44;;;25.60;36.58
13767;BME280;47980;48.794;9.176;2022-08-07T09:26:30;98749.97;;;25.67;36.99
13767;BME280;47980;48.794;9.176;2022-08-07T09:29:16;98755.66;;;25.49;36.95
13767;BME280;47980;48.794;9.176;2022-08-07T09:31:56;98749.75;;;25.24;37.57
13767;BME280;47980;48.794;9.176;2022-08-07T09:34:37;98745.06;;;25.28;37.39
13767;BME280;47980;48.794;9.176;2022-08-07T09:37:24;98748.47;;;25.62;36.14
13767;BME280;47980;48.794;9.176;2022-08-07T09:40:02;98751.66;;;25.57;35.78
13767;BME280;47980;48.794;9.176;2022-08-07T09:42:55;98746.75;;;26.03;36.47
13767;BME280;47980;48.794;9.176;2022-08-07T09:45:39;98735.97;;;25.96;35.14
13767;BME280;47980;48.794;9.176;2022-08-07T09:48:21;98745.16;;;25.82;35.06
13767;BME280;47980;48.794;9.176;2022-08-07T09:51:05;98747.28;;;26.17;34.54
13767;BME280;47980;48.794;9.176;2022-08-07T09:53:48;98738.94;;;25.78;34.44
13767;BME280;47980;48.794;9.176;2022-08-07T10:00:03;98732.16;;;25.93;34.21
13767;BME280;47980;48.794;9.176;2022-08-07T10:02:54;98742.88;;;26.27;33.43
13767;BME280;47980;48.794;9.176;2022-08-07T10:05:54;98734.19;;;26.12;33.19
13767;BME280;47980;48.794;9.176;2022-08-07T10:11:53;98717.47;;;25.87;32.43
13767;BME280;47980;48.794;9.176;2022-08-07T10:14:57;98710.56;;;26.06;33.18
13767;BME280;47980;48.794;9.176;2022-08-07T10:17:47;98714.53;;;25.74;33.53
13767;BME280;47980;48.794;9.176;2022-08-07T10:20:30;98703.41;;;26.39;32.93
13767;BME280;47980;48.794;9.176;2022-08-07T10:23:39;98709.38;;;26.54;32.59
13767;BME280;47980;48.794;9.176;2022-08-07T10:26:23;98715.81;;;26.63;32.33
13767;BME280;47980;48.794;9.176;2022-08-07T10:29:10;98704.72;;;26.31;32.86
13767;BME280;47980;48.794;9.176;2022-08-07T10:31:59;98702.22;;;26.83;32.37
13767;BME280;47980;48.794;9.176;2022-08-07T10:34:51;98700.31;;;26.60;32.40
13767;BME280;47980;48.794;9.176;2022-08-07T10:37:35;98690.41;;;26.70;31.99
13767;BME280;47980;48.794;9.176;2022-08-07T10:40:16;98690.91;;;26.65;31.42
13767;BME280;47980;48.794;9.176;2022-08-07T10:42:57;98685.31;;;26.92;32.43
13767;BME280;47980;48.794;9.176;2022-08-07T10:45:36;98678.28;;;26.75;32.24
13767;BME280;47980;48.794;9.176;2022-08-07T10:48:15;98684.34;;;26.62;33.08
13767;BME280;47980;48.794;9.176;2022-08-07T10:50:54;98677.56;;;27.10;32.48
13767;BME280;47980;48.794;9.176;2022-08-07T10:53:30;98671.34;;;27.46;32.08
13767;BME280;47980;48.794;9.176;2022-08-07T10:56:10;98679.56;;;27.26;31.95
13767;BME280;47980;48.794;9.176;2022-08-07T10:59:07;98677.88;;;27.32;32.31
13767;BME280;47980;48.794;9.176;2022-08-07T11:01:45;98675.72;;;27.04;32.47
13767;BME280;47980;48.794;9.176;2022-08-07T11:04:27;98671.78;;;26.88;32.71
13767;BME280;47980;48.794;9.176;2022-08-07T11:07:05;98660.94;;;27.25;33.24
13767;BME280;47980;48.794;9.176;2022-08-07T11:09:43;98655.72;;;27.14;33.43
13767;BME280;47980;48.794;9.176;2022-08-07T11:12:22;98662.97;;;27.01;33.26
13767;BME280;47980;48.794;9.176;2022-08-07T11:15:02;98655.28;;;26.96;32.84
13767;BME280;47980;48.794;9.176;2022-08-07T11:17:40;98655.97;;;27.00;32.98
13767;BME280;47980;48.794;9.176;2022-08-07T11:20:17;98654.72;;;26.45;33.87
13767;BME280;47980;48.794;9.176;2022-08-07T11:22:55;98647.25;;;26.69;33.56
13767;BME280;47980;48.794;9.176;2022-08-07T11:25:33;98640.44;;;26.80;32.81
13767;BME280;47980;48.794;9.176;2022-08-07T11:28:09;98637.16;;;26.69;33.12
13767;BME280;47980;48.794;9.176;2022-08-07T11:30:50;98639.13;;;27.05;32.81
13767;BME280;47980;48.794;9.176;2022-08-07T11:33:33;98644.84;;;27.10;32.96
13767;BME280;47980;48.794;9.176;2022-08-07T11:36:15;98634.53;;;27.02;32.73
13767;BME280;47980;48.794;9.176;2022-08-07T11:38:55;98627.13;;;27.02;33.19
13767;BME280;47980;48.794;9.176;2022-08-07T11:41:36;98622.63;;;27.48;32.77
13767;BME280;47980;48.794;9.176;2022-08-07T11:44:17;98624.13;;;27.17;32.63
13767;BME280;47980;48.794;9.176;2022-08-07T11:47:01;98620.66;;;27.65;32.49
13767;BME280;47980;48.794;9.176;2022-08-07T11:49:55;98613.38;;;27.78;31.85
13767;BME280;47980;48.794;9.176;2022-08-07T11:53:02;98621.41;;;27.33;33.22
13767;BME280;47980;48.794;9.176;2022-08-07T11:55:52;98626.09;;;26.96;32.32
13767;BME280;47980;48.794;9.176;2022-08-07T11:58:33;98613.22;;;27.17;32.57
13767;BME280;47980;48.794;9.176;2022-08-07T12:01:24;98611.03;;;27.28;32.76
13767;BME280;47980;48.794;9.176;2022-08-07T12:04:12;98599.00;;;27.25;31.88
13767;BME280;47980;48.794;9.176;2022-08-07T12:06:50;98606.59;;;27.67;31.90
13767;BME280;47980;48.794;9.176;2022-08-07T12:09:30;98606.59;;;28.28;31.32
13767;BME280;47980;48.794;9.176;2022-08-07T12:12:06;98616.84;;;27.79;31.17
13767;BME280;47980;48.794;9.176;2022-08-07T12:14:45;98615.28;;;27.94;31.65
13767;BME280;47980;48.794;9.176;2022-08-07T12:17:18;98599.13;;;27.71;31.56
13767;BME280;47980;48.794;9.176;2022-08-07T12:19:59;98595.84;;;27.59;31.53
13767;BME280;47980;48.794;9.176;2022-08-07T12:22:40;98586.50;;;27.77;32.18
13767;BME280;47980;48.794;9.176;2022-08-07T12:25:24;98589.56;;;27.63;32.20
13767;BME280;47980;48.794;9.176;2022-08-07T12:28:16;98593.22;;;27.72;31.47
13767;BME280;47980;48.794;9.176;2022-08-07T12:30:54;98585.47;;;27.71;31.89
13767;BME280;47980;48.794;9.176;2022-08-07T12:33:28;98594.91;;;27.66;31.21
13767;BME280;47980;48.794;9.176;2022-08-07T12:36:04;98579.56;;;28.05;31.08
13767;BME280;47980;48.794;9.176;2022-08-07T12:38:37;98592.72;;;27.77;31.52
13767;BME280;47980;48.794;9.176;2022-08-07T12:41:15;98576.59;;;27.67;30.83
13767;BME280;47980;48.794;9.176;2022-08-07T12:43:48;98580.38;;;27.89;31.10
13767;BME280;47980;48.794;9.176;2022-08-07T12:46:27;98584.25;;;28.04;31.34
13767;BME280;47980;48.794;9.176;2022-08-07T12:49:09;98574.13;;;28.18;30.74
13767;BME280;47980;48.794;9.176;2022-08-07T12:51:49;98569.00;;;28.49;30.40
13767;BME280;47980;48.794;9.176;2022-08-07T12:54:25;98577.31;;;28.45;30.49
13767;BME280;47980;48.794;9.176;2022-08-07T12:57:00;98582.28;;;28.05;31.08
13767;BME280;47980;48.794;9.176;2022-08-07T12:59:35;98583.09;;;27.89;31.53
13767;BME280;47980;48.794;9.176;2022-08-07T13:02:22;98570.88;;;27.94;31.61
13767;BME280;47980;48.794;9.176;2022-08-07T13:05:05;98569.88;;;27.71;31.40
13767;BME280;47980;48.794;9.176;2022-08-07T13:07:55;98565.25;;;28.01;30.84
13767;BME280;47980;48.794;9.176;2022-08-07T13:10:37;98564.28;;;27.78;31.06
13767;BME280;47980;48.794;9.176;2022-08-07T13:13:19;98564.97;;;28.12;31.74
13767;BME280;47980;48.794;9.176;2022-08-07T13:15:58;98564.19;;;28.40;30.42
13767;BME280;47980;48.794;9.176;2022-08-07T13:18:36;98544.56;;;28.16;30.99
13767;BME280;47980;48.794;9.176;2022-08-07T13:21:16;98552.41;;;28.43;30.84
13767;BME280;47980;48.794;9.176;2022-08-07T13:23:54;98559.97;;;28.23;31.02
13767;BME280;47980;48.794;9.176;2022-08-07T13:26:34;98543.88;;;28.12;31.09
13767;BME280;47980;48.794;9.176;2022-08-07T13:29:11;98540.31;;;28.28;31.18
13767;BME280;47980;48.794;9.176;2022-08-07T13:31:48;98537.69;;;28.66;31.22
13767;BME280;47980;48.794;9.176;2022-08-07T13:34:27;98530.59;;;28.69;30.56
13767;BME280;47980;48.794;9.176;2022-08-07T13:37:09;98525.66;;;28.89;30.12
13767;BME280;47980;48.794;9.176;2022-08-07T13:39:50;98526.50;;;28.06;30.81
13767;BME280;47980;48.794;9.176;2022-08-07T13:42:27;98533.28;;;27.85;31.11
13767;BME280;47980;48.794;9.176;2022-08-07T13:45:02;98526.78;;;28.24;30.91
13767;BME280;47980;48.794;9.176;2022-08-07T13:47:37;98527.44;;;28.28;30.45
13767;BME280;47980;48.794;9.176;2022-08-07T13:50:11;98529.91;;;28.52;30.79
13767;BME280;47980;48.794;9.176;2022-08-07T13:52:44;98515.41;;;28.93;29.88
13767;BME280;47980;48.794;9.176;2022-08-07T13:55:19;98512.66;;;28.93;29.62
13767;BME280;47980;48.794;9.176;2022-08-07T13:58:03;98512.78;;;28.90;30.07